• Join FlightAware (Why Join?)
  • Login
  • US Flag 
09:27AM EST


 

Airport Tracker/Info


-or-


 

Live Flight TrackerFlight Track Log ✈ RPA4907 ✈ 28-Jun-2013 ✈ KIAD - KALB

Flight Track Log - Related Links

Times and Time Zones

All times are in EDT time to prevent confusion due to time zone crossing. See the RPA4907 flight status page for this flight to view local times or setup timezone preferences in your user account.

Time Position Orientation Groundspeed Altitude Reporting Facility
EDT Latitude Longitude Course Direction KTS MPH feet Rate Location/Type
10:19AM 38.9833 -77.5500 North 201 231 3,400  Level Potomac TRACON
10:20AM 39.0333 -77.5500 360° North 206 237 6,000 2,340 Climbing Potomac TRACON
10:21AM 39.3316 -77.4500 North  Level FlightAware Approximate
10:21AM 39.1000 -77.5500 360° North 205 236 8,400  Level Potomac TRACON
10:22AM 39.4312 -77.4500 North  Level FlightAware Approximate
10:23AM 39.5307 -77.4500 North  Level FlightAware Approximate
10:23AM 39.2231 -77.5286 North 221 254 11,700  Level Washington Center
10:24AM 39.6303 -77.4500 North  Level FlightAware Approximate
10:24AM 39.2900 -77.5169 North 221 254 13,400  Level Washington Center
10:25AM 39.3567 -77.5053 North 227 261 14,700 1,260 Climbing Washington Center
10:26AM 39.4278 -77.4939 North 238 274 16,000 2,820 Climbing Washington Center
10:28AM 39.5836 -77.4653 North 295 339 23,000 1,080 Climbing New York Center
10:29AM 39.6636 -77.4542 North 295 339 19,200 -1,440 Descending New York Center
10:30AM 39.7428 -77.4536 360° North 295 339 20,200 960 Climbing New York Center
10:31AM 39.8261 -77.4533 360° North 295 339 21,100 840 Climbing New York Center
10:32AM 39.9075 -77.4531 360° North 295 339 21,900 780 Climbing New York Center
10:33AM 39.9908 -77.4528 360° North 295 339 22,700 540 Climbing New York Center
10:34AM 40.0744 -77.4500 North 295 339 23,000 120 Climbing New York Center
10:35AM 40.1669 -77.4397 North 310 357 23,000 420 Level New York Center
10:36AM 40.2553 -77.3858 25° Northeast 333 383 23,900 660 Climbing New York Center
10:37AM 40.3375 -77.3336 26° Northeast 327 376 24,400 420 Climbing New York Center
10:38AM 40.4111 -77.2861 26° Northeast 322 371 24,800 240 Climbing New York Center
10:39AM 40.4953 -77.2339 25° Northeast 327 376 25,000 60 Climbing New York Center
10:40AM 40.5858 -77.1769 26° Northeast 338 389 25,000  Level New York Center
10:41AM 40.6744 -77.1194 26° Northeast 344 396 25,000  Level New York Center
10:42AM 40.7653 -77.0594 27° Northeast 355 409 25,000  Level New York Center
10:43AM 40.8517 -77.0014 27° Northeast 355 409 25,000  Level New York Center
10:44AM 40.9400 -76.9464 25° Northeast 355 409 25,000  Level New York Center
10:45AM 41.0283 -76.8883 26° Northeast 355 409 25,000  Level New York Center
10:46AM 41.1144 -76.8356 25° Northeast 355 409 25,000  Level New York Center
10:47AM 41.2031 -76.7744 27° Northeast 355 409 25,000  Level New York Center
10:48AM 41.2914 -76.7161 26° Northeast 355 409 25,000  Level New York Center
10:49AM 41.3817 -76.6578 26° Northeast 355 409 25,000  Level New York Center
10:50AM 41.4761 -76.5994 25° Northeast 355 409 25,000  Level New York Center
10:51AM 41.5667 -76.5381 27° Northeast 355 409 25,000  Level New York Center
10:52AM 41.6658 -76.4717 27° Northeast 355 409 25,000  Level New York Center
10:53AM 41.7561 -76.4097 27° Northeast 355 409 25,000  Level New York Center
10:56AM 41.9689 -76.2658 27° Northeast 369 425 25,000 -60 Level Boston Center
10:57AM 42.0586 -76.2042 27° Northeast 364 419 24,800 -480 Descending Boston Center
10:58AM 42.1567 -76.1344 28° Northeast 364 419 24,100 -720 Descending Boston Center
10:59AM 42.2064 -76.0142 61° Northeast 343 395 23,400 -960 Descending Boston Center
11:00AM 42.2461 -75.8817 68° East 348 400 22,200 -1,260 Descending Boston Center
11:01AM 42.2750 -75.7514 73° East 359 413 20,900 -1,200 Descending Boston Center
11:02AM 42.3033 -75.6350 72° East 359 413 19,800 -1,080 Descending Boston Center
11:03AM 42.3358 -75.5103 71° East 359 413 18,800 -660 Descending Boston Center
11:04AM 42.3617 -75.4103 71° East 359 413 18,500 -900 Descending Boston Center
11:05AM 42.3989 -75.2572 72° East 354 407 17,000 -1,260 Descending Boston Center
11:06AM 42.4311 -75.1267 71° East 354 407 16,000 -960 Descending Boston Center
11:07AM 42.4611 -75.0011 72° East 354 407 15,100 -960 Descending Boston Center
11:08AM 42.4931 -74.8731 71° East 354 407 14,100 -960 Descending Boston Center
11:09AM 42.5228 -74.7444 73° East 359 413 13,200 -960 Descending Boston Center
11:10AM 42.5547 -74.6106 72° East 351 404 12,200 -960 Descending Boston Center
11:10AM 42.5772 -74.5267 70° East 327 376 11,600 -960 Descending Boston Center
11:11AM 42.6042 -74.4119 72° East 323 372 10,600 -1,200 Descending Boston Center
11:12AM 42.6292 -74.2969 74° East 316 364 9,200 -1,440 Descending Boston Center
11:13AM 42.6600 -74.1822 70° East 299 344 7,700 -1,380 Descending Boston Center
11:14AM 42.6844 -74.0839 71° East 278 320 6,500 -1,500 Descending Boston Center
11:15AM 42.7275 -73.9947 57° Northeast 266 306 4,700 -1,560 Descending Boston Center
11:16AM 42.7617 -73.9192 58° Northeast 255 293 3,600 -1,200 Descending Boston Center
11:17AM 42.8225 -73.9036 11° North 234 269 2,500 -1,140 Descending Boston Center